JST528 YMML-YSSY
Flight info
| Callsign | JST528 |
|---|---|
| Flight time | 1h 1m |
| Altitude | 37000 |
| Route | ML H129 DOSEL Y59 RIVET |
| Aircraft | A320/M-SDE3FGHIRWY/LB1 |
Departure
| Time | 2026-05-05 09:51 |
|---|---|
| Airport | Melbourne Airport (YMML) |
Arrival
| Time | 2026-05-05 10:53 |
|---|---|
| Airport | Sydney Kingsford Smith International Airport (YSSY) |
| Time | Latitude | Longitude | Altitude | Speed | Heading |
|---|---|---|---|---|---|
| 2026-05-05 09:12 | -37.67540 | 144.84696 | 379 ft | 0 kts | 172° |
| 2026-05-05 09:38 | -37.67537 | 144.84696 | 379 ft | 3 kts | 172° |
| 2026-05-05 09:39 | -37.67520 | 144.84693 | 379 ft | 4 kts | 171° |
| 2026-05-05 09:39 | -37.67484 | 144.84686 | 380 ft | 4 kts | 172° |
| 2026-05-05 09:39 | -37.67458 | 144.84683 | 381 ft | 4 kts | 189° |
| 2026-05-05 09:39 | -37.67440 | 144.84693 | 381 ft | 3 kts | 260° |
| 2026-05-05 09:40 | -37.67442 | 144.84680 | 381 ft | 4 kts | 261° |
| 2026-05-05 09:40 | -37.67446 | 144.84646 | 381 ft | 4 kts | 261° |
| 2026-05-05 09:40 | -37.67447 | 144.84637 | 381 ft | 1 kts | 261° |
| 2026-05-05 09:46 | -37.67448 | 144.84619 | 381 ft | 5 kts | 262° |
| 2026-05-05 09:46 | -37.67455 | 144.84560 | 380 ft | 7 kts | 262° |
| 2026-05-05 09:46 | -37.67461 | 144.84510 | 379 ft | 10 kts | 262° |
| 2026-05-05 09:47 | -37.67474 | 144.84402 | 377 ft | 15 kts | 261° |
| 2026-05-05 09:47 | -37.67493 | 144.84255 | 374 ft | 19 kts | 261° |
| 2026-05-05 09:47 | -37.67563 | 144.84127 | 373 ft | 21 kts | 179° |
| 2026-05-05 09:47 | -37.67722 | 144.84156 | 364 ft | 25 kts | 172° |
| 2026-05-05 09:48 | -37.67862 | 144.84150 | 365 ft | 13 kts | 223° |
| 2026-05-05 09:48 | -37.67871 | 144.84121 | 358 ft | 0 kts | 257° |
| 2026-05-05 09:49 | -37.67877 | 144.84082 | 361 ft | 13 kts | 260° |
| 2026-05-05 09:50 | -37.67871 | 144.83978 | 361 ft | 12 kts | 316° |
| 2026-05-05 09:50 | -37.67723 | 144.83938 | 362 ft | 46 kts | 351° |
| 2026-05-05 09:50 | -37.67179 | 144.83833 | 381 ft | 108 kts | 352° |
| 2026-05-05 09:50 | -37.66282 | 144.83667 | 412 ft | 153 kts | 351° |
| 2026-05-05 09:51 | -37.65234 | 144.83482 | 986 ft | 150 kts | 352° |
| 2026-05-05 09:51 | -37.64202 | 144.83308 | 1633 ft | 150 kts | 351° |
| 2026-05-05 09:51 | -37.63165 | 144.83115 | 2147 ft | 155 kts | 349° |
| 2026-05-05 09:51 | -37.62028 | 144.82886 | 2410 ft | 177 kts | 349° |
| 2026-05-05 09:52 | -37.60735 | 144.82625 | 2711 ft | 199 kts | 349° |
| 2026-05-05 09:52 | -37.59269 | 144.82456 | 2987 ft | 226 kts | 5° |
| 2026-05-05 09:52 | -37.57701 | 144.83109 | 3417 ft | 252 kts | 25° |
| 2026-05-05 09:52 | -37.56065 | 144.84102 | 4058 ft | 267 kts | 25° |
| 2026-05-05 09:53 | -37.54380 | 144.85135 | 4987 ft | 272 kts | 26° |
| 2026-05-05 09:53 | -37.52688 | 144.86172 | 5903 ft | 276 kts | 25° |
| 2026-05-05 09:53 | -37.50946 | 144.87238 | 6801 ft | 281 kts | 25° |
| 2026-05-05 09:53 | -37.49171 | 144.88318 | 7622 ft | 286 kts | 25° |
| 2026-05-05 09:54 | -37.47359 | 144.89418 | 8448 ft | 292 kts | 25° |
| 2026-05-05 09:54 | -37.45517 | 144.90541 | 9269 ft | 297 kts | 26° |
| 2026-05-05 09:54 | -37.43777 | 144.91993 | 10076 ft | 304 kts | 40° |
| 2026-05-05 09:54 | -37.42300 | 144.93992 | 10475 ft | 324 kts | 54° |
| 2026-05-05 09:55 | -37.40958 | 144.96386 | 10686 ft | 347 kts | 55° |
| 2026-05-05 09:55 | -37.39531 | 144.98950 | 10985 ft | 365 kts | 55° |
| 2026-05-05 09:55 | -37.38078 | 145.01552 | 11610 ft | 371 kts | 55° |
| 2026-05-05 09:55 | -37.36582 | 145.04214 | 12307 ft | 375 kts | 55° |
| 2026-05-05 09:56 | -37.35063 | 145.06903 | 13006 ft | 379 kts | 55° |
| 2026-05-05 09:56 | -37.33526 | 145.09621 | 13692 ft | 383 kts | 55° |
| 2026-05-05 09:56 | -37.31974 | 145.12362 | 14339 ft | 387 kts | 55° |
| 2026-05-05 09:56 | -37.30404 | 145.15135 | 14958 ft | 390 kts | 54° |
| 2026-05-05 09:57 | -37.28824 | 145.17921 | 15583 ft | 393 kts | 54° |
| 2026-05-05 09:57 | -37.27253 | 145.20687 | 16186 ft | 396 kts | 54° |
| 2026-05-05 09:57 | -37.25648 | 145.23507 | 16814 ft | 398 kts | 54° |
| 2026-05-05 09:57 | -37.24034 | 145.26340 | 17453 ft | 401 kts | 54° |
| 2026-05-05 09:58 | -37.22404 | 145.29205 | 18093 ft | 404 kts | 54° |
| 2026-05-05 09:58 | -37.20761 | 145.32086 | 18715 ft | 408 kts | 54° |
| 2026-05-05 09:58 | -37.19104 | 145.34984 | 19292 ft | 411 kts | 54° |
| 2026-05-05 09:58 | -37.17430 | 145.37912 | 19866 ft | 415 kts | 54° |
| 2026-05-05 09:59 | -37.15746 | 145.40859 | 20439 ft | 418 kts | 54° |
| 2026-05-05 09:59 | -37.14046 | 145.43835 | 20991 ft | 421 kts | 54° |
| 2026-05-05 09:59 | -37.12332 | 145.46826 | 21527 ft | 424 kts | 54° |
| 2026-05-05 09:59 | -37.10624 | 145.49803 | 22039 ft | 427 kts | 54° |
| 2026-05-05 10:00 | -37.08882 | 145.52833 | 22519 ft | 431 kts | 54° |
| 2026-05-05 10:00 | -37.07125 | 145.55888 | 22988 ft | 434 kts | 54° |
| 2026-05-05 10:00 | -37.05353 | 145.58972 | 23459 ft | 437 kts | 54° |
| 2026-05-05 10:00 | -37.03573 | 145.62071 | 23908 ft | 440 kts | 54° |
| 2026-05-05 10:01 | -37.01778 | 145.65192 | 24288 ft | 443 kts | 54° |
| 2026-05-05 10:01 | -36.99974 | 145.68321 | 24698 ft | 444 kts | 54° |
| 2026-05-05 10:01 | -36.98161 | 145.71456 | 25083 ft | 446 kts | 54° |
| 2026-05-05 10:01 | -36.96336 | 145.74608 | 25457 ft | 448 kts | 54° |
| 2026-05-05 10:02 | -36.94524 | 145.77732 | 25818 ft | 451 kts | 54° |
| 2026-05-05 10:02 | -36.92682 | 145.80910 | 26183 ft | 453 kts | 54° |
| 2026-05-05 10:02 | -36.90826 | 145.84107 | 26544 ft | 456 kts | 54° |
| 2026-05-05 10:02 | -36.88959 | 145.87321 | 26906 ft | 458 kts | 54° |
| 2026-05-05 10:03 | -36.87081 | 145.90552 | 27274 ft | 460 kts | 54° |
| 2026-05-05 10:03 | -36.85199 | 145.93793 | 27636 ft | 462 kts | 54° |
| 2026-05-05 10:03 | -36.83311 | 145.97046 | 27982 ft | 464 kts | 54° |
| 2026-05-05 10:03 | -36.81412 | 146.00316 | 28327 ft | 467 kts | 54° |
| 2026-05-05 10:04 | -36.79499 | 146.03604 | 28664 ft | 469 kts | 54° |
| 2026-05-05 10:04 | -36.77601 | 146.06855 | 28976 ft | 471 kts | 54° |
| 2026-05-05 10:04 | -36.75667 | 146.10161 | 29325 ft | 472 kts | 54° |
| 2026-05-05 10:04 | -36.73732 | 146.13466 | 29806 ft | 471 kts | 54° |
| 2026-05-05 10:05 | -36.71803 | 146.16763 | 30295 ft | 470 kts | 54° |
| 2026-05-05 10:05 | -36.69882 | 146.20044 | 30703 ft | 469 kts | 54° |
| 2026-05-05 10:05 | -36.67958 | 146.23329 | 31100 ft | 469 kts | 54° |
| 2026-05-05 10:05 | -36.66035 | 146.26607 | 31494 ft | 468 kts | 54° |
| 2026-05-05 10:06 | -36.64112 | 146.29877 | 31894 ft | 468 kts | 53° |
| 2026-05-05 10:06 | -36.62216 | 146.33097 | 32282 ft | 468 kts | 53° |
| 2026-05-05 10:06 | -36.60293 | 146.36364 | 32673 ft | 468 kts | 53° |
| 2026-05-05 10:06 | -36.58369 | 146.39628 | 33074 ft | 467 kts | 53° |
| 2026-05-05 10:07 | -36.56450 | 146.42881 | 33480 ft | 467 kts | 53° |
| 2026-05-05 10:07 | -36.54529 | 146.46142 | 33895 ft | 467 kts | 53° |
| 2026-05-05 10:07 | -36.52609 | 146.49396 | 34296 ft | 466 kts | 52° |
| 2026-05-05 10:07 | -36.50693 | 146.52636 | 34641 ft | 466 kts | 52° |
| 2026-05-05 10:08 | -36.48769 | 146.55883 | 34950 ft | 466 kts | 52° |
| 2026-05-05 10:08 | -36.46847 | 146.59127 | 35264 ft | 466 kts | 52° |
| 2026-05-05 10:08 | -36.44921 | 146.62379 | 35577 ft | 467 kts | 51° |
| 2026-05-05 10:08 | -36.43023 | 146.65583 | 35868 ft | 467 kts | 51° |
| 2026-05-05 10:09 | -36.41097 | 146.68824 | 36160 ft | 467 kts | 51° |
| 2026-05-05 10:09 | -36.39161 | 146.72071 | 36462 ft | 468 kts | 51° |
| 2026-05-05 10:09 | -36.37224 | 146.75321 | 36750 ft | 468 kts | 51° |
| 2026-05-05 10:09 | -36.35290 | 146.78564 | 37019 ft | 468 kts | 51° |
| 2026-05-05 10:10 | -36.33351 | 146.81813 | 37212 ft | 470 kts | 51° |
| 2026-05-05 10:10 | -36.31402 | 146.85080 | 37267 ft | 473 kts | 51° |
| 2026-05-05 10:10 | -36.27506 | 146.91608 | 37261 ft | 474 kts | 50° |
| 2026-05-05 10:11 | -36.23578 | 146.98171 | 37264 ft | 475 kts | 50° |
| 2026-05-05 10:11 | -36.19635 | 147.04735 | 37265 ft | 475 kts | 50° |
| 2026-05-05 10:12 | -36.15693 | 147.11287 | 37265 ft | 475 kts | 50° |
| 2026-05-05 10:12 | -36.11768 | 147.17800 | 37274 ft | 475 kts | 50° |
| 2026-05-05 10:13 | -36.07814 | 147.24351 | 37261 ft | 476 kts | 50° |
| 2026-05-05 10:13 | -36.03844 | 147.30902 | 37266 ft | 476 kts | 50° |
| 2026-05-05 10:14 | -35.99878 | 147.37453 | 37272 ft | 477 kts | 50° |
| 2026-05-05 10:14 | -35.95926 | 147.43968 | 37281 ft | 477 kts | 50° |
| 2026-05-05 10:15 | -35.91944 | 147.50518 | 37287 ft | 477 kts | 50° |
| 2026-05-05 10:15 | -35.87951 | 147.57062 | 37289 ft | 477 kts | 50° |
| 2026-05-05 10:16 | -35.83955 | 147.63597 | 37285 ft | 477 kts | 50° |
| 2026-05-05 10:16 | -35.79952 | 147.70135 | 37280 ft | 478 kts | 49° |
| 2026-05-05 10:17 | -35.75982 | 147.76623 | 37282 ft | 478 kts | 50° |
| 2026-05-05 10:17 | -35.71972 | 147.83157 | 37284 ft | 478 kts | 49° |
| 2026-05-05 10:18 | -35.67954 | 147.89687 | 37293 ft | 478 kts | 49° |
| 2026-05-05 10:18 | -35.63961 | 147.96167 | 37285 ft | 479 kts | 49° |
| 2026-05-05 10:19 | -35.59936 | 148.02682 | 37286 ft | 479 kts | 49° |
| 2026-05-05 10:19 | -35.55907 | 148.09195 | 37294 ft | 479 kts | 49° |
| 2026-05-05 10:20 | -35.51871 | 148.15699 | 37293 ft | 479 kts | 49° |
| 2026-05-05 10:20 | -35.47860 | 148.22154 | 37286 ft | 478 kts | 49° |
| 2026-05-05 10:21 | -35.43824 | 148.28645 | 37297 ft | 478 kts | 49° |
| 2026-05-05 10:21 | -35.39789 | 148.35122 | 37300 ft | 478 kts | 49° |
| 2026-05-05 10:22 | -35.35749 | 148.41595 | 37285 ft | 478 kts | 49° |
| 2026-05-05 10:22 | -35.31713 | 148.48053 | 37285 ft | 478 kts | 48° |
| 2026-05-05 10:23 | -35.27695 | 148.54456 | 37299 ft | 477 kts | 48° |
| 2026-05-05 10:23 | -35.23650 | 148.60889 | 37295 ft | 477 kts | 48° |
| 2026-05-05 10:24 | -35.19606 | 148.67311 | 37279 ft | 476 kts | 48° |
| 2026-05-05 10:24 | -35.15565 | 148.73731 | 37282 ft | 476 kts | 48° |
| 2026-05-05 10:25 | -35.11528 | 148.80132 | 37291 ft | 476 kts | 48° |
| 2026-05-05 10:25 | -35.07510 | 148.86484 | 37287 ft | 476 kts | 48° |
| 2026-05-05 10:26 | -35.03463 | 148.92868 | 37274 ft | 475 kts | 47° |
| 2026-05-05 10:26 | -34.99417 | 148.99236 | 37281 ft | 475 kts | 47° |
| 2026-05-05 10:27 | -34.95366 | 149.05601 | 37292 ft | 475 kts | 47° |
| 2026-05-05 10:27 | -34.91311 | 149.11965 | 37271 ft | 475 kts | 47° |
| 2026-05-05 10:28 | -34.87287 | 149.18272 | 37278 ft | 475 kts | 47° |
| 2026-05-05 10:28 | -34.83223 | 149.24614 | 37283 ft | 475 kts | 47° |
| 2026-05-05 10:29 | -34.79160 | 149.30953 | 37293 ft | 475 kts | 47° |
| 2026-05-05 10:29 | -34.75099 | 149.37288 | 37274 ft | 475 kts | 47° |
| 2026-05-05 10:30 | -34.73275 | 149.40671 | 37120 ft | 482 kts | 57° |
| 2026-05-05 10:30 | -34.71726 | 149.44230 | 36871 ft | 482 kts | 57° |
| 2026-05-05 10:30 | -34.70162 | 149.47828 | 36530 ft | 483 kts | 57° |
| 2026-05-05 10:30 | -34.68585 | 149.51445 | 35828 ft | 484 kts | 57° |
| 2026-05-05 10:31 | -34.67009 | 149.55053 | 35158 ft | 484 kts | 57° |
| 2026-05-05 10:31 | -34.65428 | 149.58657 | 34503 ft | 483 kts | 58° |
| 2026-05-05 10:31 | -34.63854 | 149.62247 | 33788 ft | 482 kts | 57° |
| 2026-05-05 10:31 | -34.62280 | 149.65835 | 33046 ft | 481 kts | 58° |
| 2026-05-05 10:32 | -34.60706 | 149.69424 | 32305 ft | 481 kts | 58° |
| 2026-05-05 10:32 | -34.59130 | 149.73012 | 31605 ft | 481 kts | 58° |
| 2026-05-05 10:32 | -34.57554 | 149.76596 | 30913 ft | 482 kts | 59° |
| 2026-05-05 10:32 | -34.55976 | 149.80181 | 30224 ft | 482 kts | 59° |
| 2026-05-05 10:33 | -34.54418 | 149.83723 | 29429 ft | 483 kts | 59° |
| 2026-05-05 10:33 | -34.52839 | 149.87315 | 28584 ft | 484 kts | 59° |
| 2026-05-05 10:33 | -34.51249 | 149.90929 | 27769 ft | 486 kts | 59° |
| 2026-05-05 10:33 | -34.49661 | 149.94534 | 26973 ft | 483 kts | 59° |
| 2026-05-05 10:34 | -34.48084 | 149.98101 | 26200 ft | 478 kts | 59° |
| 2026-05-05 10:34 | -34.46518 | 150.01634 | 25452 ft | 474 kts | 59° |
| 2026-05-05 10:34 | -34.44960 | 150.05140 | 24718 ft | 470 kts | 60° |
| 2026-05-05 10:34 | -34.43418 | 150.08610 | 23998 ft | 466 kts | 60° |
| 2026-05-05 10:35 | -34.41907 | 150.12008 | 23198 ft | 462 kts | 60° |
| 2026-05-05 10:35 | -34.40393 | 150.15418 | 22365 ft | 459 kts | 60° |
| 2026-05-05 10:35 | -34.38887 | 150.18812 | 21545 ft | 456 kts | 60° |
| 2026-05-05 10:35 | -34.37391 | 150.22181 | 20735 ft | 453 kts | 60° |
| 2026-05-05 10:36 | -34.35910 | 150.25512 | 19940 ft | 442 kts | 60° |
| 2026-05-05 10:36 | -34.34467 | 150.28753 | 19179 ft | 435 kts | 60° |
| 2026-05-05 10:36 | -34.33037 | 150.31952 | 18395 ft | 429 kts | 60° |
| 2026-05-05 10:36 | -34.31626 | 150.35106 | 17555 ft | 424 kts | 61° |
| 2026-05-05 10:37 | -34.30230 | 150.38231 | 16746 ft | 422 kts | 61° |
| 2026-05-05 10:37 | -34.28832 | 150.41355 | 15924 ft | 424 kts | 61° |
| 2026-05-05 10:37 | -34.27449 | 150.44439 | 15141 ft | 419 kts | 61° |
| 2026-05-05 10:37 | -34.26085 | 150.47481 | 14417 ft | 404 kts | 62° |
| 2026-05-05 10:38 | -34.24756 | 150.50447 | 13679 ft | 399 kts | 62° |
| 2026-05-05 10:38 | -34.23445 | 150.53373 | 12894 ft | 393 kts | 62° |
| 2026-05-05 10:38 | -34.22149 | 150.56274 | 12392 ft | 389 kts | 62° |
| 2026-05-05 10:38 | -34.20865 | 150.59149 | 12228 ft | 388 kts | 62° |
| 2026-05-05 10:39 | -34.19614 | 150.61945 | 12222 ft | 367 kts | 61° |
| 2026-05-05 10:39 | -34.18432 | 150.64574 | 12229 ft | 347 kts | 61° |
| 2026-05-05 10:39 | -34.17304 | 150.67072 | 12232 ft | 331 kts | 61° |
| 2026-05-05 10:39 | -34.16227 | 150.69461 | 12231 ft | 317 kts | 61° |
| 2026-05-05 10:40 | -34.15196 | 150.71753 | 12231 ft | 315 kts | 61° |
| 2026-05-05 10:40 | -34.14153 | 150.74075 | 12230 ft | 314 kts | 61° |
| 2026-05-05 10:40 | -34.13109 | 150.76394 | 12221 ft | 315 kts | 61° |
| 2026-05-05 10:41 | -34.10893 | 150.81308 | 12222 ft | 316 kts | 61° |
| 2026-05-05 10:41 | -34.09842 | 150.83634 | 12225 ft | 316 kts | 61° |
| 2026-05-05 10:41 | -34.08792 | 150.85964 | 12222 ft | 316 kts | 61° |
| 2026-05-05 10:41 | -34.07746 | 150.88291 | 12216 ft | 316 kts | 62° |
| 2026-05-05 10:42 | -34.05662 | 150.92930 | 11786 ft | 313 kts | 61° |
| 2026-05-05 10:42 | -34.04626 | 150.95228 | 11445 ft | 310 kts | 61° |
| 2026-05-05 10:42 | -34.03601 | 150.97498 | 11081 ft | 307 kts | 61° |
| 2026-05-05 10:43 | -34.02589 | 150.99739 | 10333 ft | 309 kts | 60° |
| 2026-05-05 10:43 | -34.01542 | 151.02006 | 9547 ft | 310 kts | 56° |
| 2026-05-05 10:43 | -34.00051 | 151.03834 | 8787 ft | 305 kts | 30° |
| 2026-05-05 10:43 | -33.98105 | 151.04703 | 8091 ft | 296 kts | 4° |
| 2026-05-05 10:44 | -33.96067 | 151.04698 | 7419 ft | 291 kts | 353° |
| 2026-05-05 10:44 | -33.94059 | 151.04517 | 6757 ft | 289 kts | 353° |
| 2026-05-05 10:44 | -33.92061 | 151.04314 | 6086 ft | 287 kts | 353° |
| 2026-05-05 10:44 | -33.90095 | 151.04094 | 5428 ft | 282 kts | 353° |
| 2026-05-05 10:45 | -33.88156 | 151.03835 | 4795 ft | 278 kts | 353° |
| 2026-05-05 10:45 | -33.86252 | 151.03546 | 4334 ft | 275 kts | 353° |
| 2026-05-05 10:45 | -33.84401 | 151.03251 | 4070 ft | 271 kts | 353° |
| 2026-05-05 10:45 | -33.82535 | 151.02943 | 3729 ft | 270 kts | 353° |
| 2026-05-05 10:46 | -33.80677 | 151.02631 | 3395 ft | 270 kts | 353° |
| 2026-05-05 10:46 | -33.78818 | 151.02320 | 3087 ft | 269 kts | 353° |
| 2026-05-05 10:46 | -33.76958 | 151.02094 | 3038 ft | 270 kts | 3° |
| 2026-05-05 10:46 | -33.75171 | 151.02703 | 3049 ft | 268 kts | 33° |
| 2026-05-05 10:47 | -33.73862 | 151.04230 | 3059 ft | 263 kts | 62° |
| 2026-05-05 10:47 | -33.73268 | 151.06284 | 3059 ft | 261 kts | 84° |
| 2026-05-05 10:47 | -33.73428 | 151.08400 | 3059 ft | 255 kts | 113° |
| 2026-05-05 10:47 | -33.74396 | 151.10096 | 3058 ft | 239 kts | 139° |
| 2026-05-05 10:48 | -33.75610 | 151.11360 | 3038 ft | 223 kts | 142° |
| 2026-05-05 10:48 | -33.76770 | 151.12498 | 3041 ft | 208 kts | 143° |
| 2026-05-05 10:48 | -33.77964 | 151.13283 | 3025 ft | 192 kts | 166° |
| 2026-05-05 10:48 | -33.79256 | 151.13631 | 2796 ft | 187 kts | 169° |
| 2026-05-05 10:49 | -33.80491 | 151.13942 | 2521 ft | 175 kts | 169° |
| 2026-05-05 10:49 | -33.81622 | 151.14232 | 2295 ft | 158 kts | 169° |
| 2026-05-05 10:49 | -33.82647 | 151.14497 | 2096 ft | 144 kts | 169° |
| 2026-05-05 10:49 | -33.83628 | 151.14749 | 1904 ft | 146 kts | 170° |
| 2026-05-05 10:50 | -33.84618 | 151.15005 | 1722 ft | 146 kts | 170° |
| 2026-05-05 10:50 | -33.85612 | 151.15262 | 1515 ft | 146 kts | 171° |
| 2026-05-05 10:50 | -33.86610 | 151.15520 | 1313 ft | 144 kts | 171° |
| 2026-05-05 10:50 | -33.87549 | 151.15765 | 1144 ft | 134 kts | 170° |
| 2026-05-05 10:51 | -33.88452 | 151.16001 | 969 ft | 132 kts | 169° |
| 2026-05-05 10:51 | -33.89337 | 151.16231 | 806 ft | 130 kts | 171° |
| 2026-05-05 10:51 | -33.90218 | 151.16478 | 674 ft | 133 kts | 170° |
| 2026-05-05 10:51 | -33.91129 | 151.16702 | 464 ft | 133 kts | 169° |
| 2026-05-05 10:52 | -33.92052 | 151.16940 | 289 ft | 136 kts | 173° |
| 2026-05-05 10:52 | -33.92967 | 151.17172 | 69 ft | 134 kts | 171° |
| 2026-05-05 10:52 | -33.93811 | 151.17388 | 26 ft | 106 kts | 167° |
| 2026-05-05 10:52 | -33.94361 | 151.17530 | 30 ft | 59 kts | 168° |
| 2026-05-05 10:53 | -33.94545 | 151.17607 | 30 ft | 9 kts | 83° |
| 2026-05-05 10:53 | -33.94520 | 151.17680 | 30 ft | 9 kts | 27° |
| 2026-05-05 10:53 | -33.94452 | 151.17707 | 30 ft | 12 kts | 16° |
| 2026-05-05 10:53 | -33.94393 | 151.17728 | 30 ft | 3 kts | 17° |
| 2026-05-05 10:54 | -33.94375 | 151.17735 | 30 ft | 4 kts | 16° |
| 2026-05-05 10:54 | -33.94341 | 151.17740 | 30 ft | 5 kts | 353° |
| 2026-05-05 10:54 | -33.94296 | 151.17727 | 30 ft | 9 kts | 344° |
| 2026-05-05 10:54 | -33.94227 | 151.17705 | 29 ft | 12 kts | 345° |
| 2026-05-05 10:55 | -33.94135 | 151.17675 | 29 ft | 16 kts | 346° |
| 2026-05-05 10:55 | -33.94016 | 151.17642 | 28 ft | 19 kts | 347° |
| 2026-05-05 10:55 | -33.93883 | 151.17607 | 29 ft | 17 kts | 348° |
| 2026-05-05 10:55 | -33.93757 | 151.17574 | 29 ft | 20 kts | 348° |
| 2026-05-05 10:56 | -33.93643 | 151.17599 | 30 ft | 14 kts | 34° |
| 2026-05-05 10:56 | -33.93546 | 151.17602 | 30 ft | 15 kts | 348° |
| 2026-05-05 10:56 | -33.93447 | 151.17588 | 30 ft | 12 kts | 6° |
| 2026-05-05 10:56 | -33.93395 | 151.17623 | 30 ft | 6 kts | 95° |
| 2026-05-05 10:57 | -33.93405 | 151.17672 | 30 ft | 7 kts | 100° |
| 2026-05-05 10:57 | -33.93411 | 151.17710 | 30 ft | 2 kts | 99° |
| 2026-05-05 10:57 | -33.93411 | 151.17714 | 30 ft | 0 kts | 99° |